FYGB

Gobabis Airport

Gobabis, Namibia
METAR FYGB 161400Z AUTO 03008KT //// // ////// 34/11 Q1019
Observed Flight Rules
Dec-16 @ 14:00 UTC (55 minutes ago)
Wind
30° at 8 knots
Temperatures Readings
Current 34°C / 93°F
Dewpoint 11°C / 52°F
Humidity 24%
Altimeter 30.09" Hg
Pressure 1019 hPa
Elevation 1442
METAR FYGB 161400Z AUTO 03008KT //// // ////// 34/11 Q1019
Observed Flight Rules
Dec-16 @ 14:00 UTC
(55 minutes ago)
Wind
30° at 8 knots
Temperature Dewpoint
34°C / 93°F 11°C / 52°F
Humidity Altimeter Pressure
24% 30.09" Hg 1019 hPa